Huntsville Municipal Airport
KUTS : now visible

Airfield :











YOU CAN JOIN US ON...

 
LOGIN :

Register | Disclaimer

   EN    FR    IT 

 









Legend :    VFR   Marginal VFR   IFR   Intensive IFR   Very Intensive IFR
Visi :
Ceiling :
>= 8 km
>= 3000ft
5 to 8 km
1000 to 3000 ft
1500m to 5 km
500 to 1000 ft
800 to 1500m
200 to 500 ft
< 800m
< 200 ft
Symbols :   Thunderstorms  Fog  Heavy snow  Heavy precipitations  Wind > 20 kt







- Airport Elevation : 363 ft


KUTS - Huntsville Municipal

CURRENT METAR :
  • 220053Z AUTO VRB04KT 10SM FEW031 29/22 A3002 RMK AO2 SLP159 T02890222

EXPIRED METARs :
  • 212353Z AUTO VRB04KT 10SM FEW038 FEW047 SCT070 31/22 A3001 RMK AO2 SLP155 T03060217 10333 20289 55004
  • 212253Z AUTO VRB04KT 10SM CLR 32/21 A3000 RMK AO2 SLP153 T03220206

TAF KUTS
Valid from the 22 at 00:00 until the 23 at 00:00 UTC


212337Z 2200/2224 15003KT P6SM SCT020
FM221000 15002KT P6SM FEW007 SCT015
TEMPO 2211/2215 BKN015
FM221600 17007KT P6SM SCT025 BKN035
FM221900 18007KT P6SM VCSH BKN040
No reported NOTAMs for that airfield.



MET'MAP, your aeronautical weather chart ! - Copyright ORBIFLY December 2007 - Disclaimer

ORBIFLY MET'MAP TEAM :

Programming & Development : Alexandra Zaïnal
Concept & Development : Baudouin d'Aumeries
Co-Development & Prog : Marc-Olivier Méhu
Technical & hardware support : Manuel Goepfert

Contact : metmap@orbifly.com




SOURCES & CREDITS :

   NOAA       Earth
Advisory